Boisdale, Canada
Current Conditions -  °F | °C
As of 2:00 AM on Sunday 26 Oct 2014 (Local Time) from CYQY Reporting Station
Drizzle Drizzle  
Wind Chill: 50°   Ceiling: 400
Heat Index: 50°   Visibility: 1mi
Dew Point: 50°   Wind: 5mph
Humidity: 100%   Direction: 110°ESE
Pressure: 29.46"   Gusts: NA
Location:  46.1°N, 60.5°W
Report Text: CYQY 260500Z 11004KT 1SM R07/6000FT/N -DZ BR BKN004 OVC012 10/10 A2946 RMK ST6SC2 SLP978
Loading
Personal Weather Stations






























Interactive Weather Map
Tropical Storm Tracking
New forecast layout! Learn more

10-Day Weather Forecast

Advertisements
Track Severe Weather on mobile